createdAt,value
2023-02-15T00:02:08.228Z,2.83
2023-02-15T00:04:48.706Z,2.82
2023-02-15T00:07:18.298Z,2.81
2023-02-15T00:09:47.597Z,2.81
2023-02-15T00:12:16.377Z,2.82
2023-02-15T00:14:45.122Z,2.81
2023-02-15T00:17:13.265Z,2.79
2023-02-15T00:19:42.010Z,2.78
2023-02-15T00:22:10.393Z,2.75
2023-02-15T00:24:38.740Z,2.73
2023-02-15T00:27:07.136Z,2.72
2023-02-15T00:29:35.397Z,2.69
2023-02-15T00:32:03.977Z,2.68
2023-02-15T00:34:32.358Z,2.64
2023-02-15T00:37:00.854Z,2.63
2023-02-15T00:39:30.096Z,2.61
2023-02-15T00:49:12.065Z,2.72
2023-02-15T00:51:45.277Z,2.85
2023-02-15T00:54:13.938Z,2.87
2023-02-15T00:56:42.202Z,2.87
2023-02-15T00:59:10.489Z,2.86
2023-02-15T01:01:38.915Z,2.82
2023-02-15T01:04:07.895Z,2.80
2023-02-15T01:06:36.531Z,2.84
2023-02-15T01:09:07.574Z,2.84
2023-02-15T01:26:03.912Z,2.85
2023-02-15T01:28:33.355Z,2.99
2023-02-15T01:31:10.863Z,2.90
2023-02-15T01:33:39.734Z,2.82
2023-02-15T01:36:08.191Z,2.70
2023-02-15T01:38:36.952Z,2.62
2023-02-15T01:41:27.436Z,2.60
2023-02-15T01:43:57.773Z,2.50
2023-02-15T01:46:34.373Z,2.43
2023-02-15T01:49:14.421Z,2.40
2023-02-15T01:51:43.566Z,2.36
2023-02-15T01:54:17.686Z,2.32
2023-02-15T01:56:45.968Z,2.29
2023-02-15T01:59:16.971Z,2.25
2023-02-15T02:01:45.333Z,2.27
2023-02-15T02:04:20.124Z,2.25
2023-02-15T02:06:49.609Z,2.30
2023-02-15T02:13:18.288Z,2.23
2023-02-15T02:16:00.886Z,2.30
2023-02-15T02:18:35.694Z,2.36
2023-02-15T02:21:18.208Z,2.41
2023-02-15T02:24:18.328Z,2.38
2023-02-15T02:27:08.416Z,2.32
2023-02-15T02:29:58.069Z,2.37
2023-02-15T02:32:34.873Z,2.42
2023-02-15T02:35:06.422Z,2.42
2023-02-15T02:37:42.687Z,2.36
2023-02-15T02:40:38.201Z,2.22
2023-02-15T02:43:20.208Z,2.14
2023-02-15T02:46:20.789Z,2.10
2023-02-15T02:48:49.624Z,2.09
2023-02-15T02:51:22.511Z,2.05
2023-02-15T02:53:52.726Z,2.01
2023-02-15T02:56:48.344Z,1.99
2023-02-15T02:59:31.366Z,1.97
2023-02-15T03:02:05.930Z,1.99
2023-02-15T03:04:37.140Z,1.99
2023-02-15T03:07:10.676Z,1.99
2023-02-15T03:09:44.870Z,1.97
2023-02-15T03:12:19.993Z,1.97
2023-02-15T03:14:53.029Z,1.97
2023-02-15T03:17:22.060Z,1.96
2023-02-15T03:19:51.582Z,1.94
2023-02-15T03:22:25.283Z,1.96
2023-02-15T03:25:21.415Z,1.94
2023-02-15T03:27:52.469Z,1.94
2023-02-15T03:30:22.105Z,1.94
2023-02-15T03:32:51.158Z,1.94
2023-02-15T03:35:24.047Z,1.94
2023-02-15T03:37:58.367Z,1.96
2023-02-15T03:40:51.933Z,1.96
2023-02-15T03:43:34.049Z,1.97
2023-02-15T03:46:09.987Z,1.98
2023-02-15T03:48:42.359Z,1.97
2023-02-15T03:51:34.599Z,1.98
2023-02-15T03:54:45.024Z,1.98
2023-02-15T03:57:41.194Z,1.97
2023-02-15T04:00:41.826Z,1.98
2023-02-15T04:03:40.604Z,2.00
2023-02-15T04:06:09.413Z,2.02
2023-02-15T04:08:56.657Z,2.01
2023-02-15T06:23:36.977Z,1.47
2023-02-15T06:26:05.462Z,1.48
2023-02-15T06:28:35.575Z,1.52
2023-02-15T06:31:04.771Z,1.53
2023-02-15T06:33:35.928Z,1.55
2023-02-15T06:36:05.109Z,1.57
2023-02-15T06:38:33.817Z,1.58
2023-02-15T06:41:01.954Z,1.59
2023-02-15T06:43:30.149Z,1.58
2023-02-15T06:45:58.868Z,1.62
2023-02-15T06:48:27.930Z,1.61
2023-02-15T06:50:56.309Z,1.63
2023-02-15T06:53:24.797Z,1.64
2023-02-15T06:55:53.071Z,1.66
2023-02-15T06:58:21.557Z,1.66
2023-02-15T07:00:50.647Z,1.69
2023-02-15T07:03:19.740Z,1.69
2023-02-15T07:05:49.975Z,1.73
2023-02-15T07:08:18.745Z,1.72
2023-02-15T07:10:47.136Z,1.75
2023-02-15T07:13:15.302Z,1.75
2023-02-15T07:15:49.075Z,1.79
2023-02-15T07:18:17.485Z,1.77
2023-02-15T07:20:45.972Z,1.76
2023-02-15T07:23:14.341Z,1.78
2023-02-15T07:25:42.819Z,1.78
2023-02-15T07:28:11.143Z,1.79
2023-02-15T07:30:39.732Z,1.81
2023-02-15T07:33:28.157Z,1.79
2023-02-15T07:36:02.294Z,1.81
2023-02-15T07:38:32.568Z,1.78
2023-02-15T07:41:01.783Z,1.77
2023-02-15T07:43:30.656Z,1.75
2023-02-15T07:46:10.041Z,1.75
2023-02-15T07:48:39.402Z,1.76
2023-02-15T07:51:10.657Z,1.76
2023-02-15T07:53:41.379Z,1.80
2023-02-15T07:56:11.974Z,1.84
2023-02-15T07:58:52.591Z,1.88
2023-02-15T08:01:28.603Z,1.93
2023-02-15T08:03:59.381Z,1.98
2023-02-15T08:06:29.624Z,2.00
2023-02-15T08:09:05.829Z,1.94
2023-02-15T08:11:38.581Z,1.88
2023-02-15T08:14:10.443Z,1.87
2023-02-15T08:16:47.399Z,1.88
2023-02-15T08:19:18.012Z,1.92
2023-02-15T08:21:48.472Z,1.97
2023-02-15T08:24:18.570Z,2.01
2023-02-15T08:26:49.016Z,2.03
2023-02-15T08:29:20.528Z,2.01
2023-02-15T08:31:49.117Z,1.98
2023-02-15T08:34:18.933Z,1.90
2023-02-15T08:36:47.323Z,1.86
2023-02-15T08:39:15.912Z,1.79
2023-02-15T08:41:45.511Z,1.74
2023-02-15T08:44:14.060Z,1.74
2023-02-15T08:46:44.373Z,1.73
2023-02-15T08:49:17.355Z,1.80
2023-02-15T08:51:45.574Z,1.81
2023-02-15T08:54:15.801Z,1.80
2023-02-15T08:56:44.812Z,1.83
2023-02-15T08:59:20.564Z,1.83
2023-02-15T09:01:52.088Z,1.82
2023-02-15T09:04:20.984Z,1.80
2023-02-15T09:06:49.662Z,1.77
2023-02-15T09:09:23.588Z,1.75
2023-02-15T09:11:57.893Z,1.79
2023-02-15T09:14:27.995Z,1.84
2023-02-15T09:16:57.240Z,1.87
2023-02-15T09:19:26.239Z,1.91
2023-02-15T09:21:59.641Z,1.90
2023-02-15T09:24:28.080Z,1.95
2023-02-15T09:27:00.865Z,1.97
2023-02-15T09:29:29.546Z,1.96
2023-02-15T09:31:57.902Z,1.95
2023-02-15T09:34:26.282Z,1.97
2023-02-15T09:36:54.721Z,1.97
2023-02-15T09:39:24.977Z,1.97
2023-02-15T09:42:06.082Z,1.95
2023-02-15T09:44:53.730Z,1.98
2023-02-15T09:47:22.398Z,1.99
2023-02-15T09:50:07.880Z,1.99
2023-02-15T09:52:58.425Z,1.98
2023-02-15T09:56:04.135Z,2.02
2023-02-15T09:59:03.539Z,1.99
2023-02-15T10:01:44.070Z,2.01
2023-02-15T10:04:24.860Z,2.05
2023-02-15T10:07:12.948Z,2.10
2023-02-15T10:10:13.390Z,2.16
2023-02-15T10:12:50.326Z,2.24
2023-02-15T10:15:21.776Z,2.28
2023-02-15T10:18:23.233Z,2.35
2023-02-15T10:21:05.604Z,2.42
2023-02-15T10:23:40.273Z,2.42
2023-02-15T10:26:42.239Z,2.44
2023-02-15T10:29:18.420Z,2.42
2023-02-15T10:31:49.177Z,2.40
2023-02-15T10:34:19.803Z,2.42
2023-02-15T10:37:13.632Z,2.46
2023-02-15T10:39:47.760Z,2.53
2023-02-15T10:42:33.741Z,2.60
2023-02-15T10:45:10.362Z,2.64
2023-02-15T10:48:05.108Z,2.66
2023-02-15T10:50:49.594Z,2.73
2023-02-15T10:54:06.684Z,2.76
2023-02-15T10:56:59.440Z,2.80
2023-02-15T10:59:33.649Z,2.86
2023-02-15T11:02:23.759Z,2.91
2023-02-15T11:04:56.415Z,2.96
2023-02-15T11:07:36.170Z,2.97
2023-02-15T14:31:32.185Z,7.32
2023-02-15T14:34:00.529Z,7.60
2023-02-15T14:36:28.981Z,7.86
2023-02-15T14:39:35.344Z,7.96
2023-02-15T14:42:21.884Z,7.81
2023-02-15T14:44:59.054Z,7.36
2023-02-15T14:47:32.566Z,6.93
2023-02-15T14:50:00.642Z,6.52
2023-02-15T14:52:29.780Z,6.20
2023-02-15T14:54:58.633Z,5.99
2023-02-15T14:57:27.849Z,5.80
2023-02-15T14:59:58.586Z,5.67
2023-02-15T15:02:48.372Z,5.53
2023-02-15T15:05:36.587Z,5.39
2023-02-15T15:08:06.020Z,5.29
2023-02-15T15:10:41.595Z,5.22
2023-02-15T15:13:31.835Z,5.16
2023-02-15T15:16:26.737Z,5.07
2023-02-15T15:18:55.977Z,5.00
2023-02-15T15:21:49.421Z,4.93
2023-02-15T15:24:54.333Z,4.88
2023-02-15T15:27:41.215Z,4.83
2023-02-15T15:30:15.666Z,4.77
2023-02-15T15:32:59.937Z,4.71
2023-02-15T15:35:47.034Z,4.65
2023-02-15T15:38:18.205Z,4.62
2023-02-15T15:41:18.790Z,4.55
2023-02-15T15:44:08.902Z,4.50
2023-02-15T15:47:00.211Z,4.47
2023-02-15T15:49:30.448Z,4.45
2023-02-15T15:52:01.621Z,4.41
2023-02-15T15:54:30.252Z,4.42
2023-02-15T15:57:02.376Z,4.39
2023-02-15T15:59:34.319Z,4.37
2023-02-15T16:02:09.141Z,4.36
2023-02-15T16:04:37.486Z,4.36
2023-02-15T16:07:15.826Z,4.34
2023-02-15T16:10:02.125Z,4.33
2023-02-15T16:12:33.226Z,4.33
2023-02-15T16:15:27.354Z,4.32
2023-02-15T16:17:57.427Z,4.32
2023-02-15T16:20:30.887Z,4.29
2023-02-15T16:23:22.394Z,4.27
2023-02-15T16:25:54.019Z,4.26
2023-02-15T16:28:22.086Z,4.25
2023-02-15T16:31:07.060Z,4.25
2023-02-15T16:33:38.596Z,4.24
2023-02-15T16:36:11.214Z,4.23
2023-02-15T16:38:43.206Z,4.22
2023-02-15T16:41:13.344Z,4.20
2023-02-15T16:43:42.192Z,4.20
2023-02-15T16:46:12.424Z,4.18
2023-02-15T16:48:44.548Z,4.16
2023-02-15T16:51:20.024Z,4.16
2023-02-15T16:53:49.147Z,4.17
2023-02-15T16:56:18.932Z,4.18
2023-02-15T16:58:47.616Z,4.19
2023-02-15T17:01:15.995Z,4.17
2023-02-15T17:03:46.137Z,4.16
2023-02-15T17:06:27.613Z,4.14
2023-02-15T17:09:15.662Z,4.13
2023-02-15T17:11:44.364Z,4.11
2023-02-15T17:14:15.491Z,4.09
2023-02-15T17:16:53.614Z,4.08
2023-02-15T17:19:49.668Z,4.08
2023-02-15T17:22:23.278Z,4.08
2023-02-15T17:25:02.684Z,4.09
2023-02-15T17:27:32.881Z,4.08
2023-02-15T17:30:04.556Z,4.07
2023-02-15T17:32:37.474Z,4.06
2023-02-15T17:35:26.284Z,4.05
2023-02-15T17:38:21.478Z,4.03
2023-02-15T17:40:49.757Z,4.01
2023-02-15T17:43:18.239Z,3.99
2023-02-15T17:45:50.963Z,3.97
2023-02-15T17:48:31.810Z,3.96
2023-02-15T17:51:01.823Z,3.94
2023-02-15T17:53:30.397Z,3.91
2023-02-15T17:55:58.678Z,3.89
2023-02-15T17:58:27.050Z,3.89
2023-02-15T18:01:15.013Z,3.87
2023-02-15T18:04:07.319Z,3.84
2023-02-15T18:06:55.882Z,3.82
2023-02-15T18:09:43.420Z,3.81
2023-02-15T18:12:23.786Z,3.80
2023-02-15T18:14:57.071Z,3.78
2023-02-15T18:17:48.489Z,3.78
2023-02-15T18:20:28.925Z,3.79
2023-02-15T18:22:57.292Z,3.79
2023-02-15T18:25:25.843Z,3.78
2023-02-15T18:27:55.348Z,3.76
2023-02-15T18:30:26.679Z,3.77
2023-02-15T18:32:59.283Z,3.79
2023-02-15T18:35:29.976Z,3.78
2023-02-15T18:37:58.783Z,3.79
2023-02-15T18:40:27.652Z,3.78
2023-02-15T18:42:57.231Z,3.77
2023-02-15T18:45:33.236Z,3.77
2023-02-15T18:48:01.872Z,3.76
2023-02-15T18:50:33.700Z,3.73
2023-02-15T18:53:03.059Z,3.71
2023-02-15T18:55:33.180Z,3.71
2023-02-15T18:58:01.615Z,3.68
2023-02-15T19:00:34.339Z,3.69
2023-02-15T19:03:02.721Z,3.68
2023-02-15T19:05:31.204Z,3.68
2023-02-15T19:08:00.145Z,3.67
2023-02-15T19:10:29.658Z,3.66
2023-02-15T19:12:57.881Z,3.66
2023-02-15T19:15:28.003Z,3.66
2023-02-15T19:17:56.690Z,3.63
2023-02-15T19:20:34.175Z,3.64
2023-02-15T19:23:02.880Z,3.64
2023-02-15T19:25:32.078Z,3.64
2023-02-15T19:28:00.137Z,3.63
2023-02-15T19:30:30.345Z,3.61
2023-02-15T19:32:58.843Z,3.60
2023-02-15T19:35:29.957Z,3.59
2023-02-15T19:37:59.748Z,3.58
2023-02-15T19:40:30.217Z,3.56
2023-02-15T19:42:58.575Z,3.52
2023-02-15T19:45:31.004Z,3.51
2023-02-15T19:48:01.205Z,3.51
2023-02-15T19:50:32.208Z,3.50
2023-02-15T19:53:02.177Z,3.51
2023-02-15T19:55:32.756Z,3.51
2023-02-15T19:58:01.681Z,3.53
2023-02-15T20:00:33.677Z,3.52
2023-02-15T20:03:01.860Z,3.51
2023-02-15T20:05:31.127Z,3.50
2023-02-15T20:07:59.314Z,3.49
2023-02-15T20:10:29.426Z,3.49
2023-02-15T20:12:57.942Z,3.47
2023-02-15T20:15:35.282Z,3.44
2023-02-15T20:18:04.467Z,3.43
2023-02-15T20:20:49.365Z,3.42
2023-02-15T20:23:20.734Z,3.39
2023-02-15T20:25:50.166Z,3.37
2023-02-15T20:28:26.985Z,3.35
2023-02-15T20:30:56.507Z,3.35
2023-02-15T20:33:25.266Z,3.34
2023-02-15T20:35:55.035Z,3.32
2023-02-15T20:56:43.614Z,3.68
2023-02-15T20:59:32.063Z,3.84
2023-02-15T21:02:05.516Z,3.76
2023-02-15T21:04:33.969Z,3.68
2023-02-15T21:07:02.399Z,3.61
2023-02-15T21:09:31.183Z,3.54
2023-02-15T21:11:59.795Z,3.49
2023-02-15T21:14:27.942Z,3.46
2023-02-15T21:16:56.322Z,3.41
2023-02-15T21:19:27.263Z,3.39
2023-02-15T21:21:56.265Z,3.37
2023-02-15T21:24:26.603Z,3.36
2023-02-15T21:26:55.370Z,3.33
2023-02-15T21:29:25.932Z,3.31
2023-02-15T21:31:54.572Z,3.30
2023-02-15T21:34:22.850Z,3.29
2023-02-15T21:36:51.240Z,3.30
2023-02-15T21:39:24.337Z,3.31
2023-02-15T21:42:11.968Z,3.33
2023-02-15T21:44:59.316Z,3.36
2023-02-15T21:47:48.571Z,3.38
2023-02-15T21:50:40.917Z,3.38
2023-02-15T21:53:25.873Z,3.37
2023-02-15T21:55:56.418Z,3.35
2023-02-15T21:58:26.328Z,3.33
2023-02-15T22:00:55.736Z,3.31
2023-02-15T22:03:25.623Z,3.28
2023-02-15T22:05:53.706Z,3.25
2023-02-15T22:08:22.109Z,3.23
2023-02-15T22:10:50.964Z,3.21
2023-02-15T22:13:29.648Z,3.20
2023-02-15T22:15:58.485Z,3.18
2023-02-15T22:18:31.374Z,3.17
2023-02-15T22:21:02.090Z,3.15
2023-02-15T22:23:31.138Z,3.14
2023-02-15T22:26:05.968Z,3.12
2023-02-15T22:28:38.186Z,3.12
2023-02-15T22:31:10.427Z,3.13
2023-02-15T22:33:38.625Z,3.12
2023-02-15T22:36:09.194Z,3.12
2023-02-15T22:38:38.564Z,3.12
2023-02-15T22:41:06.974Z,3.12
2023-02-15T22:43:43.092Z,3.11
2023-02-15T22:46:22.652Z,3.10
2023-02-15T22:48:51.846Z,3.09
2023-02-15T22:51:21.660Z,3.08
2023-02-15T22:53:51.943Z,3.08
2023-02-15T22:56:35.212Z,3.05
2023-02-15T22:59:06.255Z,3.04
2023-02-15T23:01:36.675Z,3.02
2023-02-15T23:04:04.931Z,3.01
2023-02-15T23:06:34.484Z,2.97
2023-02-15T23:09:02.641Z,2.94
2023-02-15T23:11:31.114Z,2.93
2023-02-15T23:13:59.801Z,2.92
2023-02-15T23:16:27.968Z,2.92
2023-02-15T23:18:57.073Z,2.91
2023-02-15T23:21:29.607Z,2.89
2023-02-15T23:24:17.386Z,2.89
2023-02-15T23:26:45.964Z,2.89
2023-02-15T23:29:22.955Z,2.89
2023-02-15T23:31:52.752Z,2.87
2023-02-15T23:34:29.538Z,2.86
2023-02-15T23:36:58.017Z,2.84
2023-02-15T23:39:46.414Z,2.84
2023-02-15T23:42:20.374Z,2.83
2023-02-15T23:44:50.916Z,2.81
2023-02-15T23:47:55.945Z,2.78
2023-02-15T23:50:27.296Z,2.76
2023-02-15T23:52:56.081Z,2.74
2023-02-15T23:55:25.967Z,2.73
2023-02-15T23:57:54.279Z,2.73
